sensor_id;sensor_type;location;lat;lon;timestamp;P1;durP1;ratioP1;P2;durP2;ratioP2
22515;SDS011;11424;48.860;9.624;2023-01-24T00:01:37;21.7;;;45;;
22515;SDS011;11424;48.860;9.624;2023-01-24T00:06:37;20.5;;;44.6;;
22515;SDS011;11424;48.860;9.624;2023-01-24T00:11:37;24.6;;;52.7;;
22515;SDS011;11424;48.860;9.624;2023-01-24T00:16:37;21.9;;;46;;
22515;SDS011;11424;48.860;9.624;2023-01-24T00:21:37;19.8;;;41.4;;
22515;SDS011;11424;48.860;9.624;2023-01-24T00:26:37;19.1;;;40.2;;
22515;SDS011;11424;48.860;9.624;2023-01-24T00:31:37;19.7;;;42.6;;
22515;SDS011;11424;48.860;9.624;2023-01-24T00:36:37;20.1;;;39.9;;
22515;SDS011;11424;48.860;9.624;2023-01-24T00:41:37;17;;;33.4;;
22515;SDS011;11424;48.860;9.624;2023-01-24T00:46:37;21.4;;;43.5;;
22515;SDS011;11424;48.860;9.624;2023-01-24T00:51:37;22.1;;;47;;
22515;SDS011;11424;48.860;9.624;2023-01-24T00:56:37;19.8;;;42.4;;
22515;SDS011;11424;48.860;9.624;2023-01-24T01:01:37;21.5;;;46.1;;
22515;SDS011;11424;48.860;9.624;2023-01-24T01:06:37;19.4;;;42.2;;
22515;SDS011;11424;48.860;9.624;2023-01-24T01:11:37;20.9;;;45.2;;
22515;SDS011;11424;48.860;9.624;2023-01-24T01:16:37;19;;;39.6;;
22515;SDS011;11424;48.860;9.624;2023-01-24T01:21:37;17.9;;;38.8;;
22515;SDS011;11424;48.860;9.624;2023-01-24T01:26:37;19.4;;;40.3;;
22515;SDS011;11424;48.860;9.624;2023-01-24T01:31:37;18.6;;;38.4;;
22515;SDS011;11424;48.860;9.624;2023-01-24T01:36:37;16.8;;;34.7;;
22515;SDS011;11424;48.860;9.624;2023-01-24T01:41:37;19.1;;;40.8;;
22515;SDS011;11424;48.860;9.624;2023-01-24T01:46:40;15.5;;;30.5;;
22515;SDS011;11424;48.860;9.624;2023-01-24T01:51:39;17.4;;;35.7;;
22515;SDS011;11424;48.860;9.624;2023-01-24T01:56:38;16.1;;;32;;
22515;SDS011;11424;48.860;9.624;2023-01-24T02:01:37;16;;;33;;
22515;SDS011;11424;48.860;9.624;2023-01-24T02:06:41;18.2;;;39.9;;
22515;SDS011;11424;48.860;9.624;2023-01-24T02:11:38;16.6;;;33.1;;
22515;SDS011;11424;48.860;9.624;2023-01-24T02:16:38;16.8;;;35.5;;
22515;SDS011;11424;48.860;9.624;2023-01-24T02:21:37;14.8;;;29.5;;
22515;SDS011;11424;48.860;9.624;2023-01-24T02:26:38;17.4;;;36.2;;
22515;SDS011;11424;48.860;9.624;2023-01-24T02:31:54;15.5;;;31.1;;
22515;SDS011;11424;48.860;9.624;2023-01-24T02:36:37;15.2;;;32.2;;
22515;SDS011;11424;48.860;9.624;2023-01-24T02:41:38;16;;;32.8;;
22515;SDS011;11424;48.860;9.624;2023-01-24T02:46:38;16;;;32;;
22515;SDS011;11424;48.860;9.624;2023-01-24T02:51:37;17.3;;;36.6;;
22515;SDS011;11424;48.860;9.624;2023-01-24T02:56:37;17.2;;;34.7;;
22515;SDS011;11424;48.860;9.624;2023-01-24T03:01:38;15.5;;;32;;
22515;SDS011;11424;48.860;9.624;2023-01-24T03:06:37;17.4;;;35.7;;
22515;SDS011;11424;48.860;9.624;2023-01-24T03:11:37;18.7;;;36.7;;
22515;SDS011;11424;48.860;9.624;2023-01-24T03:16:38;19.2;;;38.2;;
22515;SDS011;11424;48.860;9.624;2023-01-24T03:21:38;17.2;;;35.4;;
22515;SDS011;11424;48.860;9.624;2023-01-24T03:26:37;15.5;;;30.5;;
22515;SDS011;11424;48.860;9.624;2023-01-24T03:31:37;16.2;;;34.8;;
22515;SDS011;11424;48.860;9.624;2023-01-24T03:36:37;17.1;;;35;;
22515;SDS011;11424;48.860;9.624;2023-01-24T03:41:38;16;;;32.9;;
22515;SDS011;11424;48.860;9.624;2023-01-24T03:46:38;18.1;;;37.2;;
22515;SDS011;11424;48.860;9.624;2023-01-24T03:51:38;18.5;;;39.2;;
22515;SDS011;11424;48.860;9.624;2023-01-24T03:56:38;17.5;;;34.5;;
22515;SDS011;11424;48.860;9.624;2023-01-24T04:01:38;17.9;;;34.3;;
22515;SDS011;11424;48.860;9.624;2023-01-24T04:06:38;16.3;;;33.2;;
22515;SDS011;11424;48.860;9.624;2023-01-24T04:11:38;19;;;38.9;;
22515;SDS011;11424;48.860;9.624;2023-01-24T04:16:38;18.7;;;39.5;;
22515;SDS011;11424;48.860;9.624;2023-01-24T04:21:38;17.2;;;35.6;;
22515;SDS011;11424;48.860;9.624;2023-01-24T04:26:38;16.9;;;33.5;;
22515;SDS011;11424;48.860;9.624;2023-01-24T04:31:38;17.4;;;33.8;;
22515;SDS011;11424;48.860;9.624;2023-01-24T04:36:38;21.9;;;41.1;;
22515;SDS011;11424;48.860;9.624;2023-01-24T04:41:38;20.4;;;38;;
22515;SDS011;11424;48.860;9.624;2023-01-24T04:46:38;22.1;;;44.6;;
22515;SDS011;11424;48.860;9.624;2023-01-24T04:51:38;22.7;;;43.5;;
22515;SDS011;11424;48.860;9.624;2023-01-24T04:56:38;20.8;;;42.9;;
22515;SDS011;11424;48.860;9.624;2023-01-24T05:01:38;19.5;;;37.7;;
22515;SDS011;11424;48.860;9.624;2023-01-24T05:06:38;17.6;;;36.3;;
22515;SDS011;11424;48.860;9.624;2023-01-24T05:11:38;18.6;;;38.7;;
22515;SDS011;11424;48.860;9.624;2023-01-24T05:16:38;18.5;;;38.6;;
22515;SDS011;11424;48.860;9.624;2023-01-24T05:21:38;16.8;;;33.7;;
22515;SDS011;11424;48.860;9.624;2023-01-24T05:26:38;17.3;;;36.3;;
22515;SDS011;11424;48.860;9.624;2023-01-24T05:31:38;18.4;;;39.7;;
22515;SDS011;11424;48.860;9.624;2023-01-24T05:36:38;18.5;;;39.2;;
22515;SDS011;11424;48.860;9.624;2023-01-24T05:41:38;21.2;;;44.4;;
22515;SDS011;11424;48.860;9.624;2023-01-24T05:46:38;18.8;;;38.1;;
22515;SDS011;11424;48.860;9.624;2023-01-24T05:51:38;40.9;;;78.4;;
22515;SDS011;11424;48.860;9.624;2023-01-24T05:56:38;31.9;;;61.2;;
22515;SDS011;11424;48.860;9.624;2023-01-24T06:01:38;29.9;;;55.7;;
22515;SDS011;11424;48.860;9.624;2023-01-24T06:06:38;22.4;;;41.6;;
22515;SDS011;11424;48.860;9.624;2023-01-24T06:11:38;28;;;51.7;;
22515;SDS011;11424;48.860;9.624;2023-01-24T06:16:38;28;;;55.5;;
22515;SDS011;11424;48.860;9.624;2023-01-24T06:21:42;28.1;;;53.8;;
22515;SDS011;11424;48.860;9.624;2023-01-24T06:26:38;28.7;;;55.8;;
22515;SDS011;11424;48.860;9.624;2023-01-24T06:31:39;36.6;;;72.3;;
22515;SDS011;11424;48.860;9.624;2023-01-24T06:36:41;32.3;;;60.9;;
22515;SDS011;11424;48.860;9.624;2023-01-24T06:41:38;26.6;;;49.8;;
22515;SDS011;11424;48.860;9.624;2023-01-24T06:46:38;27.9;;;50.8;;
22515;SDS011;11424;48.860;9.624;2023-01-24T06:51:38;33.5;;;59.6;;
22515;SDS011;11424;48.860;9.624;2023-01-24T06:56:38;32.2;;;55;;
22515;SDS011;11424;48.860;9.624;2023-01-24T07:01:38;29.9;;;51.4;;
22515;SDS011;11424;48.860;9.624;2023-01-24T07:06:38;32.9;;;57.7;;
22515;SDS011;11424;48.860;9.624;2023-01-24T07:11:38;34.9;;;59.4;;
22515;SDS011;11424;48.860;9.624;2023-01-24T07:16:38;29.3;;;49.5;;
22515;SDS011;11424;48.860;9.624;2023-01-24T07:21:38;25.3;;;45.3;;
22515;SDS011;11424;48.860;9.624;2023-01-24T07:26:38;27.8;;;51.7;;
22515;SDS011;11424;48.860;9.624;2023-01-24T07:31:38;30.3;;;55.4;;
22515;SDS011;11424;48.860;9.624;2023-01-24T07:36:38;19.1;;;38.4;;
22515;SDS011;11424;48.860;9.624;2023-01-24T07:41:38;18.7;;;31.8;;
22515;SDS011;11424;48.860;9.624;2023-01-24T07:46:38;23.7;;;40.4;;
22515;SDS011;11424;48.860;9.624;2023-01-24T07:51:38;26;;;42.5;;
22515;SDS011;11424;48.860;9.624;2023-01-24T07:56:38;27.9;;;49.3;;
22515;SDS011;11424;48.860;9.624;2023-01-24T08:01:38;31.1;;;54.9;;
22515;SDS011;11424;48.860;9.624;2023-01-24T08:06:38;31.8;;;54.9;;
22515;SDS011;11424;48.860;9.624;2023-01-24T08:11:38;27.2;;;49.6;;
22515;SDS011;11424;48.860;9.624;2023-01-24T08:16:38;15.5;;;30.2;;
22515;SDS011;11424;48.860;9.624;2023-01-24T08:21:38;16;;;30.5;;
22515;SDS011;11424;48.860;9.624;2023-01-24T08:26:38;16.8;;;30.2;;
22515;SDS011;11424;48.860;9.624;2023-01-24T08:31:38;23.7;;;43.7;;
22515;SDS011;11424;48.860;9.624;2023-01-24T08:36:38;25.7;;;49.6;;
22515;SDS011;11424;48.860;9.624;2023-01-24T08:41:38;25.3;;;47;;
22515;SDS011;11424;48.860;9.624;2023-01-24T08:46:38;32.9;;;54.8;;
22515;SDS011;11424;48.860;9.624;2023-01-24T08:51:38;34.4;;;58.4;;
22515;SDS011;11424;48.860;9.624;2023-01-24T08:56:38;29.7;;;49.7;;
22515;SDS011;11424;48.860;9.624;2023-01-24T09:01:38;16.7;;;32.3;;
22515;SDS011;11424;48.860;9.624;2023-01-24T09:06:38;17.7;;;35.2;;
22515;SDS011;11424;48.860;9.624;2023-01-24T09:11:38;29.1;;;48.7;;
22515;SDS011;11424;48.860;9.624;2023-01-24T09:16:38;28.3;;;51.9;;
22515;SDS011;11424;48.860;9.624;2023-01-24T09:21:38;28.1;;;49.3;;
22515;SDS011;11424;48.860;9.624;2023-01-24T09:26:38;25.1;;;46.7;;
22515;SDS011;11424;48.860;9.624;2023-01-24T09:31:38;29.7;;;51.3;;
22515;SDS011;11424;48.860;9.624;2023-01-24T09:36:38;27.9;;;48.3;;
22515;SDS011;11424;48.860;9.624;2023-01-24T09:41:41;23.6;;;41.8;;
22515;SDS011;11424;48.860;9.624;2023-01-24T09:46:38;18.7;;;33.2;;
22515;SDS011;11424;48.860;9.624;2023-01-24T09:51:40;33.3;;;52.8;;
22515;SDS011;11424;48.860;9.624;2023-01-24T09:56:40;69.9;;;79.8;;
22515;SDS011;11424;48.860;9.624;2023-01-24T10:01:38;92.1;;;111.2;;
22515;SDS011;11424;48.860;9.624;2023-01-24T10:06:38;100.5;;;119.7;;
22515;SDS011;11424;48.860;9.624;2023-01-24T10:11:41;114.2;;;141.2;;
22515;SDS011;11424;48.860;9.624;2023-01-24T10:16:43;130.2;;;174.7;;
22515;SDS011;11424;48.860;9.624;2023-01-24T10:21:43;160.4;;;220.1;;
22515;SDS011;11424;48.860;9.624;2023-01-24T10:26:39;221.3;;;403.9;;
22515;SDS011;11424;48.860;9.624;2023-01-24T10:31:39;148.5;;;208.9;;
22515;SDS011;11424;48.860;9.624;2023-01-24T10:36:39;141.2;;;196.9;;
22515;SDS011;11424;48.860;9.624;2023-01-24T10:41:38;136.4;;;188.5;;
22515;SDS011;11424;48.860;9.624;2023-01-24T10:47:13;139.7;;;194.5;;
22515;SDS011;11424;48.860;9.624;2023-01-24T10:51:38;142;;;188.7;;
22515;SDS011;11424;48.860;9.624;2023-01-24T10:56:38;112.4;;;134.9;;
22515;SDS011;11424;48.860;9.624;2023-01-24T11:01:39;119.5;;;151.7;;
22515;SDS011;11424;48.860;9.624;2023-01-24T11:06:39;112.3;;;140.4;;
22515;SDS011;11424;48.860;9.624;2023-01-24T11:11:40;110.2;;;133.6;;
22515;SDS011;11424;48.860;9.624;2023-01-24T11:16:40;85.3;;;95.6;;
22515;SDS011;11424;48.860;9.624;2023-01-24T11:21:48;95;;;108.8;;
22515;SDS011;11424;48.860;9.624;2023-01-24T11:26:49;29;;;43.7;;
22515;SDS011;11424;48.860;9.624;2023-01-24T11:31:39;105.1;;;131.5;;
22515;SDS011;11424;48.860;9.624;2023-01-24T11:36:39;62;;;76.1;;
22515;SDS011;11424;48.860;9.624;2023-01-24T11:41:40;96.7;;;115.3;;
22515;SDS011;11424;48.860;9.624;2023-01-24T11:46:43;264.5;;;517.6;;
22515;SDS011;11424;48.860;9.624;2023-01-24T11:51:41;369.1;;;666.3;;
22515;SDS011;11424;48.860;9.624;2023-01-24T11:56:40;179.2;;;291.3;;
22515;SDS011;11424;48.860;9.624;2023-01-24T12:01:42;402.2;;;609.4;;
22515;SDS011;11424;48.860;9.624;2023-01-24T12:06:40;405.2;;;621.5;;
22515;SDS011;11424;48.860;9.624;2023-01-24T12:11:39;404.9;;;624.9;;
22515;SDS011;11424;48.860;9.624;2023-01-24T12:16:41;250.5;;;381.8;;
22515;SDS011;11424;48.860;9.624;2023-01-24T12:21:38;449.9;;;707.1;;
22515;SDS011;11424;48.860;9.624;2023-01-24T12:26:39;411.3;;;647.9;;
22515;SDS011;11424;48.860;9.624;2023-01-24T12:31:39;428.5;;;625.2;;
22515;SDS011;11424;48.860;9.624;2023-01-24T12:36:39;245;;;360.6;;
22515;SDS011;11424;48.860;9.624;2023-01-24T12:41:38;246.8;;;376.3;;
22515;SDS011;11424;48.860;9.624;2023-01-24T12:46:38;75.8;;;98.7;;
22515;SDS011;11424;48.860;9.624;2023-01-24T12:51:40;28;;;31.3;;
22515;SDS011;11424;48.860;9.624;2023-01-24T12:56:42;30;;;38.3;;
22515;SDS011;11424;48.860;9.624;2023-01-24T13:01:47;33.5;;;38.7;;
22515;SDS011;11424;48.860;9.624;2023-01-24T13:06:40;26.4;;;34.1;;
22515;SDS011;11424;48.860;9.624;2023-01-24T13:11:39;29;;;36.5;;
22515;SDS011;11424;48.860;9.624;2023-01-24T13:16:43;23.8;;;29.8;;
22515;SDS011;11424;48.860;9.624;2023-01-24T13:21:40;29.2;;;37.2;;
22515;SDS011;11424;48.860;9.624;2023-01-24T13:26:42;74.6;;;92.9;;
22515;SDS011;11424;48.860;9.624;2023-01-24T13:31:43;60.8;;;73.3;;
22515;SDS011;11424;48.860;9.624;2023-01-24T13:36:38;66.6;;;91.2;;
22515;SDS011;11424;48.860;9.624;2023-01-24T13:41:38;28.8;;;35.5;;
22515;SDS011;11424;48.860;9.624;2023-01-24T13:47:39;38.1;;;43.9;;
22515;SDS011;11424;48.860;9.624;2023-01-24T13:51:42;26.5;;;31.6;;
22515;SDS011;11424;48.860;9.624;2023-01-24T13:57:08;46.2;;;68;;
22515;SDS011;11424;48.860;9.624;2023-01-24T14:01:43;23.9;;;34.2;;
22515;SDS011;11424;48.860;9.624;2023-01-24T14:06:38;23.5;;;29.7;;
22515;SDS011;11424;48.860;9.624;2023-01-24T14:11:39;30;;;33.6;;
22515;SDS011;11424;48.860;9.624;2023-01-24T14:16:55;259.8;;;413.8;;
22515;SDS011;11424;48.860;9.624;2023-01-24T14:21:44;357.1;;;598.7;;
22515;SDS011;11424;48.860;9.624;2023-01-24T14:26:38;204;;;320.1;;
22515;SDS011;11424;48.860;9.624;2023-01-24T14:31:38;357.9;;;615.7;;
22515;SDS011;11424;48.860;9.624;2023-01-24T14:36:38;376.6;;;700;;
22515;SDS011;11424;48.860;9.624;2023-01-24T14:41:39;323.7;;;617.2;;
22515;SDS011;11424;48.860;9.624;2023-01-24T14:46:38;324.9;;;608.6;;
22515;SDS011;11424;48.860;9.624;2023-01-24T14:51:42;361.8;;;683.9;;
22515;SDS011;11424;48.860;9.624;2023-01-24T14:56:39;297.2;;;582.6;;
22515;SDS011;11424;48.860;9.624;2023-01-24T15:01:38;346.1;;;638.4;;
22515;SDS011;11424;48.860;9.624;2023-01-24T15:06:38;366.1;;;676.6;;
22515;SDS011;11424;48.860;9.624;2023-01-24T15:11:38;375;;;661.1;;
22515;SDS011;11424;48.860;9.624;2023-01-24T15:16:39;315.1;;;554.5;;
22515;SDS011;11424;48.860;9.624;2023-01-24T15:21:39;354.4;;;626.4;;
22515;SDS011;11424;48.860;9.624;2023-01-24T15:26:39;183.7;;;289.3;;
22515;SDS011;11424;48.860;9.624;2023-01-24T15:31:39;158.9;;;227;;
22515;SDS011;11424;48.860;9.624;2023-01-24T15:36:38;118.1;;;141.6;;
22515;SDS011;11424;48.860;9.624;2023-01-24T15:41:38;112.6;;;141.2;;
22515;SDS011;11424;48.860;9.624;2023-01-24T15:46:39;97.9;;;109.6;;
22515;SDS011;11424;48.860;9.624;2023-01-24T15:51:39;95.6;;;109.3;;
22515;SDS011;11424;48.860;9.624;2023-01-24T15:56:38;130.2;;;171.7;;
22515;SDS011;11424;48.860;9.624;2023-01-24T16:01:38;120.9;;;156.4;;
22515;SDS011;11424;48.860;9.624;2023-01-24T16:06:38;123.7;;;156.9;;
22515;SDS011;11424;48.860;9.624;2023-01-24T16:11:39;124.7;;;157.6;;
22515;SDS011;11424;48.860;9.624;2023-01-24T16:16:38;67.9;;;81;;
22515;SDS011;11424;48.860;9.624;2023-01-24T16:21:38;35.8;;;52.5;;
22515;SDS011;11424;48.860;9.624;2023-01-24T16:26:38;34.9;;;54.2;;
22515;SDS011;11424;48.860;9.624;2023-01-24T16:31:38;28.3;;;37;;
22515;SDS011;11424;48.860;9.624;2023-01-24T16:36:38;54.8;;;74.4;;
22515;SDS011;11424;48.860;9.624;2023-01-24T16:41:38;65.5;;;89.2;;
22515;SDS011;11424;48.860;9.624;2023-01-24T16:46:38;70.6;;;101.4;;
22515;SDS011;11424;48.860;9.624;2023-01-24T16:51:38;75;;;99.4;;
22515;SDS011;11424;48.860;9.624;2023-01-24T16:56:38;72.5;;;100.4;;
22515;SDS011;11424;48.860;9.624;2023-01-24T17:01:39;70.1;;;104.9;;
22515;SDS011;11424;48.860;9.624;2023-01-24T17:06:38;36.1;;;67.9;;
22515;SDS011;11424;48.860;9.624;2023-01-24T17:11:38;31.8;;;62.7;;
22515;SDS011;11424;48.860;9.624;2023-01-24T17:16:38;72.1;;;109.4;;
22515;SDS011;11424;48.860;9.624;2023-01-24T17:21:38;69.3;;;105.1;;
22515;SDS011;11424;48.860;9.624;2023-01-24T17:26:38;56.1;;;81.7;;
22515;SDS011;11424;48.860;9.624;2023-01-24T17:31:38;62.5;;;96.4;;
22515;SDS011;11424;48.860;9.624;2023-01-24T17:36:39;65.9;;;103.6;;
22515;SDS011;11424;48.860;9.624;2023-01-24T17:41:39;50.9;;;72.8;;
22515;SDS011;11424;48.860;9.624;2023-01-24T17:46:39;55.7;;;86.9;;
22515;SDS011;11424;48.860;9.624;2023-01-24T17:51:38;22.1;;;41.4;;
22515;SDS011;11424;48.860;9.624;2023-01-24T17:56:38;44;;;64.7;;
22515;SDS011;11424;48.860;9.624;2023-01-24T18:01:39;45.9;;;66.1;;
22515;SDS011;11424;48.860;9.624;2023-01-24T18:06:38;36;;;49.7;;
22515;SDS011;11424;48.860;9.624;2023-01-24T18:11:39;44.3;;;64.6;;
22515;SDS011;11424;48.860;9.624;2023-01-24T18:16:38;49;;;71.3;;
22515;SDS011;11424;48.860;9.624;2023-01-24T18:21:39;39.9;;;55;;
22515;SDS011;11424;48.860;9.624;2023-01-24T18:26:38;41.4;;;59.6;;
22515;SDS011;11424;48.860;9.624;2023-01-24T18:31:38;36.3;;;54.1;;
22515;SDS011;11424;48.860;9.624;2023-01-24T18:36:39;45.8;;;72;;
22515;SDS011;11424;48.860;9.624;2023-01-24T18:41:38;63;;;96.3;;
22515;SDS011;11424;48.860;9.624;2023-01-24T18:46:39;50.3;;;72.3;;
22515;SDS011;11424;48.860;9.624;2023-01-24T18:51:38;86.5;;;134.9;;
22515;SDS011;11424;48.860;9.624;2023-01-24T18:56:40;126.9;;;172;;
22515;SDS011;11424;48.860;9.624;2023-01-24T19:01:39;104.9;;;144.7;;
22515;SDS011;11424;48.860;9.624;2023-01-24T19:06:39;66.1;;;112.6;;
22515;SDS011;11424;48.860;9.624;2023-01-24T19:11:39;58.2;;;95.5;;
22515;SDS011;11424;48.860;9.624;2023-01-24T19:16:39;26.4;;;50.8;;
22515;SDS011;11424;48.860;9.624;2023-01-24T19:21:39;23.4;;;46;;
22515;SDS011;11424;48.860;9.624;2023-01-24T19:26:38;23.4;;;52.4;;
22515;SDS011;11424;48.860;9.624;2023-01-24T19:31:38;20.2;;;41.8;;
22515;SDS011;11424;48.860;9.624;2023-01-24T19:36:39;66.8;;;122.1;;
22515;SDS011;11424;48.860;9.624;2023-01-24T19:41:39;56.4;;;99;;
22515;SDS011;11424;48.860;9.624;2023-01-24T19:46:38;46.6;;;82.5;;
22515;SDS011;11424;48.860;9.624;2023-01-24T19:51:38;54.9;;;100;;
22515;SDS011;11424;48.860;9.624;2023-01-24T19:56:39;44;;;77.6;;
22515;SDS011;11424;48.860;9.624;2023-01-24T20:01:38;21.7;;;36.7;;
22515;SDS011;11424;48.860;9.624;2023-01-24T20:06:39;23;;;41.9;;
22515;SDS011;11424;48.860;9.624;2023-01-24T20:11:38;21.9;;;44;;
22515;SDS011;11424;48.860;9.624;2023-01-24T20:16:39;38.1;;;88.5;;
22515;SDS011;11424;48.860;9.624;2023-01-24T20:21:39;31;;;73;;
22515;SDS011;11424;48.860;9.624;2023-01-24T20:26:38;28.8;;;64.1;;
22515;SDS011;11424;48.860;9.624;2023-01-24T20:31:38;29.2;;;66.3;;
22515;SDS011;11424;48.860;9.624;2023-01-24T20:36:39;29.3;;;66.1;;
22515;SDS011;11424;48.860;9.624;2023-01-24T20:41:38;26.3;;;60.8;;
22515;SDS011;11424;48.860;9.624;2023-01-24T20:46:38;14.3;;;23.2;;
22515;SDS011;11424;48.860;9.624;2023-01-24T20:51:39;16.9;;;29.6;;
22515;SDS011;11424;48.860;9.624;2023-01-24T20:56:39;33.7;;;59.7;;
22515;SDS011;11424;48.860;9.624;2023-01-24T21:01:38;57.2;;;88.5;;
22515;SDS011;11424;48.860;9.624;2023-01-24T21:06:39;162.2;;;278.9;;
22515;SDS011;11424;48.860;9.624;2023-01-24T21:11:39;178.2;;;331.2;;
22515;SDS011;11424;48.860;9.624;2023-01-24T21:16:39;84.7;;;127.9;;
22515;SDS011;11424;48.860;9.624;2023-01-24T21:21:39;68.9;;;100.7;;
22515;SDS011;11424;48.860;9.624;2023-01-24T21:26:39;132.2;;;189.2;;
22515;SDS011;11424;48.860;9.624;2023-01-24T21:31:39;129.5;;;153.3;;
22515;SDS011;11424;48.860;9.624;2023-01-24T21:36:39;157;;;232.2;;
22515;SDS011;11424;48.860;9.624;2023-01-24T21:41:39;159.6;;;253.3;;
22515;SDS011;11424;48.860;9.624;2023-01-24T21:46:39;157.7;;;265.4;;
22515;SDS011;11424;48.860;9.624;2023-01-24T21:51:39;133.6;;;197.7;;
22515;SDS011;11424;48.860;9.624;2023-01-24T21:56:39;220.3;;;425.1;;
22515;SDS011;11424;48.860;9.624;2023-01-24T22:01:39;161.6;;;275.8;;
22515;SDS011;11424;48.860;9.624;2023-01-24T22:06:39;187.7;;;310.8;;
22515;SDS011;11424;48.860;9.624;2023-01-24T22:11:39;237.5;;;456.3;;
22515;SDS011;11424;48.860;9.624;2023-01-24T22:16:39;107.4;;;149.3;;
22515;SDS011;11424;48.860;9.624;2023-01-24T22:21:44;74.7;;;98.8;;
22515;SDS011;11424;48.860;9.624;2023-01-24T22:26:39;84.8;;;108.6;;
22515;SDS011;11424;48.860;9.624;2023-01-24T22:31:39;244;;;463.3;;
22515;SDS011;11424;48.860;9.624;2023-01-24T22:36:39;141.9;;;214.4;;
22515;SDS011;11424;48.860;9.624;2023-01-24T22:41:39;93.6;;;132.2;;
22515;SDS011;11424;48.860;9.624;2023-01-24T22:46:39;60;;;75.5;;
22515;SDS011;11424;48.860;9.624;2023-01-24T22:51:39;49.9;;;69.3;;
22515;SDS011;11424;48.860;9.624;2023-01-24T22:56:39;24.8;;;42.5;;
22515;SDS011;11424;48.860;9.624;2023-01-24T23:01:39;21.4;;;41.3;;
22515;SDS011;11424;48.860;9.624;2023-01-24T23:06:39;23.5;;;47.7;;
22515;SDS011;11424;48.860;9.624;2023-01-24T23:11:39;18.2;;;37.2;;
22515;SDS011;11424;48.860;9.624;2023-01-24T23:16:39;38.1;;;58.8;;
22515;SDS011;11424;48.860;9.624;2023-01-24T23:21:39;44.5;;;67.4;;
22515;SDS011;11424;48.860;9.624;2023-01-24T23:26:39;36.6;;;55.4;;
22515;SDS011;11424;48.860;9.624;2023-01-24T23:31:39;36.9;;;57.4;;
22515;SDS011;11424;48.860;9.624;2023-01-24T23:36:39;41.4;;;66.1;;
22515;SDS011;11424;48.860;9.624;2023-01-24T23:41:39;21.5;;;38.6;;
22515;SDS011;11424;48.860;9.624;2023-01-24T23:46:40;19.2;;;36.1;;
22515;SDS011;11424;48.860;9.624;2023-01-24T23:51:39;19.4;;;33;;
22515;SDS011;11424;48.860;9.624;2023-01-24T23:56:39;36.4;;;56.4;;
